Herzele, Belgium
Current Conditions -  °F | °C
As of 12:25 AM on Sunday 21 Dec 2014 (Local Time) from EBCV Reporting Station
Few Clouds Few Clouds  
Wind Chill: 33°   Ceiling: Unl
Heat Index: 39°   Visibility: 6mi
Dew Point: 36°   Wind: 9mph
Humidity: 87%   Direction: 230°SW
Pressure: 30.48"   Gusts: NA
Location:  50.89°N, 3.89°E
Report Text: EBCV 202325Z AUTO 23008KT 9999 FEW028/// 04/02 Q1032 BLU
Loading
Personal Weather Stations






























Interactive Weather Map New forecast layout! Learn more

10-Day Weather Forecast

Advertisements
Track Severe Weather on mobile